YBUD Airport Information

Runway Information
Runway 07 Length 3701 ft width 98 ft
Elevation 107 ft Threshold 0 ft Heading 69
Runway 25 Length 3701 ft Width 98 ft
Elevation 101 ft Threshold 0 ft Heading 249
Runway 14 Length 5030 ft width 98 ft
Elevation 101 ft Threshold 329 ft Heading 148
Runway 32 Length 5030 ft Width 98 ft
Elevation 101 ft Threshold 0 ft Heading 328
Airport Frequencies
Type CTAF Name CTAF Frequency 126.9 MHZ
Type FSS Name BRISBANE C Frequency 124.1 MHZ
Airport Navaids
Type NDB Name Bundaberg Frequency 266 KHZ
Airport Weather Information & NOTAM
ADDS - METARS form results

(2046 UTC 21 March 2019)
Data provider http://aviationweather.gov/metar/data/
 
METAR text: YBUD 212000Z AUTO 19004KT 9000 // NCD 22/21 Q1014
Conditions at: YBUD (BUNDABERG , AU) observed 2000 UTC 21 March 2019
Temperature: 22.0°C (72°F)
Dewpoint: 21.0°C (70°F) [RH = 94%]
Pressure (altimeter): 29.94 inches Hg (1014.0 mb)
Winds: from the S (190 degrees) at 5 MPH (4 knots; 2.1 m/s)
Visibility: 6 miles ( 9 km)
Ceiling: at least 12,000 feet AGL
Clouds: sky clear below 12,000 feet AGL
Weather: no significant weather observed at this time